Map

Track Data

SID SEASON NUMBER BASIN SUBBASIN NAME ISO_TIME NATURE LAT LON WMO_WIND WMO_PRES WMO_AGENCY TRACK_TYPE DIST2LAND LANDFALL IFLAG USA_AGENCY USA_ATCF_ID USA_LAT USA_LON USA_RECORD USA_STATUS USA_WIND USA_PRES USA_SSHS USA_R34_NE USA_R34_SE USA_R34_SW USA_R34_NW USA_R50_NE USA_R50_SE USA_R50_SW USA_R50_NW USA_R64_NE USA_R64_SE USA_R64_SW USA_R64_NW USA_POCI USA_ROCI USA_RMW USA_EYE TOKYO_LAT TOKYO_LON TOKYO_GRADE TOKYO_WIND TOKYO_PRES TOKYO_R50_DIR TOKYO_R50_LONG TOKYO_R50_SHORT TOKYO_R30_DIR TOKYO_R30_LONG TOKYO_R30_SHORT TOKYO_LAND CMA_LAT CMA_LON CMA_CAT CMA_WIND CMA_PRES HKO_LAT HKO_LON HKO_CAT HKO_WIND HKO_PRES NEWDELHI_LAT NEWDELHI_LON NEWDELHI_GRADE NEWDELHI_WIND NEWDELHI_PRES NEWDELHI_CI NEWDELHI_DP NEWDELHI_POCI REUNION_LAT REUNION_LON REUNION_TYPE REUNION_WIND REUNION_PRES REUNION_TNUM REUNION_CI REUNION_RMW REUNION_R34_NE REUNION_R34_SE REUNION_R34_SW REUNION_R34_NW REUNION_R50_NE REUNION_R50_SE REUNION_R50_SW REUNION_R50_NW REUNION_R64_NE REUNION_R64_SE REUNION_R64_SW REUNION_R64_NW BOM_LAT BOM_LON BOM_TYPE BOM_WIND BOM_PRES BOM_TNUM BOM_CI BOM_RMW BOM_R34_NE BOM_R34_SE BOM_R34_SW BOM_R34_NW BOM_R50_NE BOM_R50_SE BOM_R50_SW BOM_R50_NW BOM_R64_NE BOM_R64_SE BOM_R64_SW BOM_R64_NW BOM_ROCI BOM_POCI BOM_EYE BOM_POS_METHOD BOM_PRES_METHOD NADI_LAT NADI_LON NADI_CAT NADI_WIND NADI_PRES WELLINGTON_LAT WELLINGTON_LON WELLINGTON_WIND WELLINGTON_PRES DS824_LAT DS824_LON DS824_STAGE DS824_WIND DS824_PRES TD9636_LAT TD9636_LON TD9636_STAGE TD9636_WIND TD9636_PRES TD9635_LAT TD9635_LON TD9635_WIND TD9635_PRES TD9635_ROCI NEUMANN_LAT NEUMANN_LON NEUMANN_CLASS NEUMANN_WIND NEUMANN_PRES MLC_LAT MLC_LON MLC_CLASS MLC_WIND MLC_PRES USA_GUST BOM_GUST BOM_GUST_PER REUNION_GUST REUNION_GUST_PER USA_SEAHGT USA_SEARAD_NE USA_SEARAD_SE USA_SEARAD_SW USA_SEARAD_NW STORM_SPEED STORM_DIR
1871249N16318 1871 22 NA NA NOT_NAMED 1871-09-05 12:00:00 TS 16.0000 -42.5000 main 1625 1619 _____________O -1 16.0000 -42.5000 TD 30 12 307
1871249N16318 1871 22 NA NA NOT_NAMED 1871-09-05 15:00:00 TS 16.3602 -42.9996 main 1630 1623 _____________P -1 16.3602 -42.9996 TD 30 12 306
1871249N16318 1871 22 NA NA NOT_NAMED 1871-09-05 18:00:00 TS 16.7000 -43.5000 main 1625 1617 _____________O -1 16.7000 -43.5000 TD 30 12 304
1871249N16318 1871 22 NA NA NOT_NAMED 1871-09-05 21:00:00 TS 17.0074 -44.0002 main 1620 1613 _____________P -1 17.0074 -44.0002 TD 30 11 302
1871249N16318 1871 22 NA NA NOT_NAMED 1871-09-06 00:00:00 TS 17.3000 -44.5000 main 1616 1608 _____________O -1 17.3000 -44.5000 TD 30 11 302
1871249N16318 1871 22 NA NA NOT_NAMED 1871-09-06 03:00:00 TS 17.5999 -45.0002 main 1616 1610 _____________P -1 17.5999 -45.0002 TD 30 11 302
1871249N16318 1871 22 NA NA NOT_NAMED 1871-09-06 06:00:00 TS 17.9000 -45.5000 main 1618 1612 _____________O -1 17.9000 -45.5000 TD 30 11 302
1871249N16318 1871 22 NA NA NOT_NAMED 1871-09-06 09:00:00 TS 18.1849 -46.0003 main 1622 1617 _____________P -1 18.1849 -46.0003 TD 32 11 302
1871249N16318 1871 22 NA NA NOT_NAMED 1871-09-06 12:00:00 TS 18.5000 -46.5000 main 1628 1624 _____________O -1 18.5000 -46.5000 TS 35 12 307
1871249N16318 1871 22 NA NA NOT_NAMED 1871-09-06 15:00:00 TS 18.8924 -47.0000 main 1647 1643 _____________P -1 18.8924 -47.0000 TS 35 12 310
1871249N16318 1871 22 NA NA NOT_NAMED 1871-09-06 18:00:00 TS 19.3000 -47.5000 main 1666 1661 _____________O -1 19.3000 -47.5000 TS 35 12 308
1871249N16318 1871 22 NA NA NOT_NAMED 1871-09-06 21:00:00 TS 19.6500 -48.0152 main 1674 1674 _____________P -1 19.6500 -48.0152 TS 35 12 307
1871249N16318 1871 22 NA NA NOT_NAMED 1871-09-07 00:00:00 TS 20.0000 -48.5000 main 1694 1682 _____________O -1 20.0000 -48.5000 TS 35 11 311
1871249N16318 1871 22 NA NA NOT_NAMED 1871-09-07 03:00:00 TS 20.3998 -48.9226 main 1689 1679 _____________P -1 20.3998 -48.9226 TS 35 11 317
1871249N16318 1871 22 NA NA NOT_NAMED 1871-09-07 06:00:00 TS 20.8000 -49.3000 main 1685 1676 _____________O -1 20.8000 -49.3000 TS 35 10 317
1871249N16318 1871 22 NA NA NOT_NAMED 1871-09-07 09:00:00 TS 21.1424 -49.6579 main 1676 1666 _____________P -1 21.1424 -49.6579 TS 37 10 317
1871249N16318 1871 22 NA NA NOT_NAMED 1871-09-07 12:00:00 TS 21.5000 -50.0000 main 1666 1641 _____________O -1 21.5000 -50.0000 TS 40 10 321
1871249N16318 1871 22 NA NA NOT_NAMED 1871-09-07 15:00:00 TS 21.9349 -50.3501 main 1633 1612 _____________P -1 21.9349 -50.3501 TS 40 11 324
1871249N16318 1871 22 NA NA NOT_NAMED 1871-09-07 18:00:00 TS 22.4000 -50.7000 main 1614 1593 _____________O -1 22.4000 -50.7000 TS 40 11 325
1871249N16318 1871 22 NA NA NOT_NAMED 1871-09-07 21:00:00 TS 22.8499 -51.0502 main 1586 1569 _____________P -1 22.8499 -51.0502 TS 40 11 324
1871249N16318 1871 22 NA NA NOT_NAMED 1871-09-08 00:00:00 TS 23.3000 -51.4000 main 1572 1554 _____________O -1 23.3000 -51.4000 TS 40 11 324
1871249N16318 1871 22 NA NA NOT_NAMED 1871-09-08 03:00:00 TS 23.7575 -51.7576 main 1552 1540 _____________P -1 23.7575 -51.7576 TS 40 11 325
1871249N16318 1871 22 NA NA NOT_NAMED 1871-09-08 06:00:00 TS 24.2000 -52.1000 main 1540 1525 _____________O -1 24.2000 -52.1000 TS 40 10 325
1871249N16318 1871 22 NA NA NOT_NAMED 1871-09-08 09:00:00 TS 24.6074 -52.4152 main 1529 1516 _____________P -1 24.6074 -52.4152 TS 42 10 326
1871249N16318 1871 22 NA NA NOT_NAMED 1871-09-08 12:00:00 TS 25.0000 -52.7000 main 1521 1514 _____________O -1 25.0000 -52.7000 TS 45 9 328
1871249N16318 1871 22 NA NA NOT_NAMED 1871-09-08 15:00:00 TS 25.4074 -52.9651 main 1515 1514 _____________P -1 25.4074 -52.9651 TS 45 9 331
1871249N16318 1871 22 NA NA NOT_NAMED 1871-09-08 18:00:00 TS 25.8000 -53.2000 main 1520 1517 _____________O -1 25.8000 -53.2000 TS 45 8 332
1871249N16318 1871 22 NA NA NOT_NAMED 1871-09-08 21:00:00 TS 26.1499 -53.4003 main 1520 1518 _____________P -1 26.1499 -53.4003 TS 45 8 333
1871249N16318 1871 22 NA NA NOT_NAMED 1871-09-09 00:00:00 TS 26.5000 -53.6000 main 1528 1526 _____________O -1 26.5000 -53.6000 TS 45 9 332
1871249N16318 1871 22 NA NA NOT_NAMED 1871-09-09 03:00:00 TS 26.9000 -53.8499 main 1537 1529 _____________P -1 26.9000 -53.8499 TS 45 9 331
1871249N16318 1871 22 NA NA NOT_NAMED 1871-09-09 06:00:00 TS 27.3000 -54.1000 main 1540 1538 _____________O -1 27.3000 -54.1000 TS 45 8 330
1871249N16318 1871 22 NA NA NOT_NAMED 1871-09-09 09:00:00 TS 27.6275 -54.3153 main 1545 1545 _____________P -1 27.6275 -54.3153 TS 47 8 333
1871249N16318 1871 22 NA NA NOT_NAMED 1871-09-09 12:00:00 TS 28.0000 -54.5000 main 1559 1559 _____________O -1 28.0000 -54.5000 TS 50 10 340
1871249N16318 1871 22 NA NA NOT_NAMED 1871-09-09 15:00:00 TS 28.5275 -54.6797 main 1582 1582 _____________P -1 28.5275 -54.6797 TS 50 11 347
1871249N16318 1871 22 NA NA NOT_NAMED 1871-09-09 18:00:00 TS 29.1000 -54.8000 main 1621 1621 _____________O -1 29.1000 -54.8000 TS 50 11 353
1871249N16318 1871 22 NA NA NOT_NAMED 1871-09-09 21:00:00 TS 29.6000 -54.8228 main 1661 1661 _____________P -1 29.6000 -54.8228 TS 50 10 1
1871249N16318 1871 22 NA NA NOT_NAMED 1871-09-10 00:00:00 TS 30.1000 -54.8000 main 1702 1702 _____________O -1 30.1000 -54.8000 TS 50 11 0
1871249N16318 1871 22 NA NA NOT_NAMED 1871-09-10 03:00:00 TS 30.6500 -54.8000 main 1698 1650 _____________P -1 30.6500 -54.8000 TS 50 11 0
1871249N16318 1871 22 NA NA NOT_NAMED 1871-09-10 06:00:00 TS 31.2000 -54.8000 main 1650 1598 _____________O -1 31.2000 -54.8000 TS 50 10 0
1871249N16318 1871 22 NA NA NOT_NAMED 1871-09-10 09:00:00 TS 31.6850 -54.7853 main 1598 1545 _____________P -1 31.6850 -54.7853 TS 52 10 1
1871249N16318 1871 22 NA NA NOT_NAMED 1871-09-10 12:00:00 TS 32.2000 -54.8000 main 1545 1478 _____________O -1 32.2000 -54.8000 TS 55 12 355
1871249N16318 1871 22 NA NA NOT_NAMED 1871-09-10 15:00:00 TS 32.8350 -54.9068 main 1478 1402 _____________P -1 32.8350 -54.9068 TS 55 13 353
1871249N16318 1871 22 NA NA NOT_NAMED 1871-09-10 18:00:00 TS 33.5000 -55.0000 main 1402 1339 _____________O -1 33.5000 -55.0000 TS 55 13 358
1871249N16318 1871 22 NA NA NOT_NAMED 1871-09-10 21:00:00 TS 34.1000 -54.9729 main 1339 1280 _____________P -1 34.1000 -54.9729 TS 57 12 4
1871249N16318 1871 22 NA NA NOT_NAMED 1871-09-11 00:00:00 TS 34.7000 -54.9000 main 1280 1222 _____________O -1 34.7000 -54.9000 TS 60 13 5
1871249N16318 1871 22 NA NA NOT_NAMED 1871-09-11 03:00:00 TS 35.3500 -54.8426 main 1212 1151 _____________P -1 35.3500 -54.8426 TS 60 13 4
1871249N16318 1871 22 NA NA NOT_NAMED 1871-09-11 06:00:00 TS 36.0000 -54.8000 main 1151 1097 _____________O -1 36.0000 -54.8000 TS 60 12 0
1871249N16318 1871 22 NA NA NOT_NAMED 1871-09-11 09:00:00 TS 36.5772 -54.8651 main 1087 1032 _____________P -1 36.5772 -54.8651 TS 60 12 1
1871249N16318 1871 22 NA NA NOT_NAMED 1871-09-11 12:00:00 TS 37.2000 -54.8000 main 1032 969 _____________O -1 37.2000 -54.8000 TS 60 14 15
1871249N16318 1871 22 NA NA NOT_NAMED 1871-09-11 15:00:00 TS 37.9702 -54.3909 main 958 867 _____________P -1 37.9702 -54.3909 TS 65 18 26
1871249N16318 1871 22 NA NA NOT_NAMED 1871-09-11 18:00:00 TS 38.8000 -53.8000 main 867 778 _____________O -1 38.8000 -53.8000 HU 70 19 28
1871249N16318 1871 22 NA NA NOT_NAMED 1871-09-11 21:00:00 TS 39.6596 -53.2304 main 767 690 _____________P -1 39.6596 -53.2304 HU 70 18 30
1871249N16318 1871 22 NA NA NOT_NAMED 1871-09-12 00:00:00 TS 40.4000 -52.6000 main 690 649 _____________O -1 40.4000 -52.6000 HU 70 15 39
1871249N16318 1871 22 NA NA NOT_NAMED 1871-09-12 03:00:00 TS 40.8662 -51.9646 main 640 619 _____________P -1 40.8662 -51.9646 HU 70 13 53
1871249N16318 1871 22 NA NA NOT_NAMED 1871-09-12 06:00:00 TS 41.2000 -51.2000 main 621 606 _____________O -1 41.2000 -51.2000 HU 70 15 62
1871249N16318 1871 22 NA NA NOT_NAMED 1871-09-12 09:00:00 TS 41.5490 -50.2456 main 615 604 _____________P -1 41.5490 -50.2456 HU 70 17 66
1871249N16318 1871 22 NA NA NOT_NAMED 1871-09-12 12:00:00 TS 41.9000 -49.1000 main 615 614 _____________O -1 41.9000 -49.1000 HU 70 20 68
1871249N16318 1871 22 NA NA NOT_NAMED 1871-09-12 15:00:00 TS 42.2859 -47.7646 main 640 640 _____________P -1 42.2859 -47.7646 HU 70 21 68
1871249N16318 1871 22 NA NA NOT_NAMED 1871-09-12 18:00:00 TS 42.7000 -46.4000 main 688 688 _____________O -1 42.7000 -46.4000 HU 70 20 66
1871249N16318 1871 22 NA NA NOT_NAMED 1871-09-12 21:00:00 TS 43.1025 -45.2305 main 736 736 _____________P -1 43.1025 -45.2305 HU 70 19 62
1871249N16318 1871 22 NA NA NOT_NAMED 1871-09-13 00:00:00 TS 43.6000 -44.1000 main 779 779 _____________O -1 43.6000 -44.1000 HU 70 21 56
1871249N16318 1871 22 NA NA NOT_NAMED 1871-09-13 03:00:00 TS 44.2615 -42.8719 main 826 826 _____________P -1 44.2615 -42.8719 HU 70 23 52
1871249N16318 1871 22 NA NA NOT_NAMED 1871-09-13 06:00:00 TS 45.0000 -41.6000 main 885 885 _____________O -1 45.0000 -41.6000 HU 70 23 52
1871249N16318 1871 22 NA NA NOT_NAMED 1871-09-13 09:00:00 TS 45.6999 -40.2685 main 955 955 _____________P -1 45.6999 -40.2685 HU 70 23 52
1871249N16318 1871 22 NA NA NOT_NAMED 1871-09-13 12:00:00 TS 46.4000 -39.0000 main 1033 1033 _____________O -1 46.4000 -39.0000 HU 70 21 49
1871249N16318 1871 22 NA NA NOT_NAMED 1871-09-13 15:00:00 TS 47.0979 -37.9084 main 1102 1102 _____________P -1 47.0979 -37.9084 HU 70 20 46
1871249N16318 1871 22 NA NA NOT_NAMED 1871-09-13 18:00:00 TS 47.8000 -36.9000 main 1169 1169 _____________O -1 47.8000 -36.9000 HU 70 20 45
1871249N16318 1871 22 NA NA NOT_NAMED 1871-09-13 21:00:00 TS 48.5144 -35.8337 main 1246 1246 _____________P -1 48.5144 -35.8337 HU 70 20 45
1871249N16318 1871 22 NA NA NOT_NAMED 1871-09-14 00:00:00 TS 49.2000 -34.8000 main 1317 1276 _____________O -1 49.2000 -34.8000 HU 70 985 18 44
1871249N16318 1871 22 NA NA NOT_NAMED 1871-09-14 03:00:00 TS 49.8187 -33.9183 main 1279 1246 _____________P -1 49.8187 -33.9183 HU 67 17 46
1871249N16318 1871 22 NA NA NOT_NAMED 1871-09-14 06:00:00 TS 50.4000 -32.9000 main 1249 1239 _____________O -1 50.4000 -32.9000 HU 65 19 54
1871249N16318 1871 22 NA NA NOT_NAMED 1871-09-14 09:00:00 TS 50.9580 -31.4532 main 1238 1238 _____________P -1 50.9580 -31.4532 HU 62 22 61
1871249N16318 1871 22 NA NA NOT_NAMED 1871-09-14 12:00:00 ET 51.5000 -29.8000 main 1256 1201 _____________O -1 51.5000 -29.8000 EX 60 23 62
1871249N16318 1871 22 NA NA NOT_NAMED 1871-09-14 15:00:00 ET 52.0506 -28.1476 main 1193 1086 _____________P -1 52.0506 -28.1476 EX 60 23 62
1871249N16318 1871 22 NA NA NOT_NAMED 1871-09-14 18:00:00 ET 52.6000 -26.5000 main 1080 _____________O -1 52.6000 -26.5000 EX 60 23 61

About IBTrACS Database

This database is a web-friendly format of International Best Track Archive for Climate Stewardship (IBTrACS), a global best track data archive curated by NOAA dating back to 1842.

Updated: 2021-12-06